Weather at Vilnius International Airport

Public forecast

Using degrees Celsius for public forecast. Weather courtesy of forecast.io.

Current aviation weather report (METAR) for Vilnius International Airport

2024/06/19 06:50 (retrieved 34 minutes ago)

EYVI 190650Z 23013KT 200V260 5000 TSRA BKN029CB 18/16 Q1012 TEMPO 3000 TSRA

Aviation forecast (TAF) for Vilnius International Airport

2024/06/19 06:07 Correction (retrieved 1 hour ago)

TAF COR EYVI 190505Z 1906/2006 18010KT 6000 BKN040 TEMPO 1906/1912 VRB16G30KT 1500 TSRA SCT005 BKN025CB TEMPO 1912/1918 VRB20G35KT 1500 TSGR BKN005 BKN020CB BECMG 1918/1919 30012KT TEMPO 1919/1924 SHRA BKN030CB TEMPO 2000/2006 SCT010